createdAt,value
2018-01-03T01:38:27.119Z,6.73
2018-01-03T01:38:27.691Z,6.76
2018-01-03T01:38:28.291Z,6.73
2018-01-03T01:38:28.894Z,6.68
2018-01-03T01:38:29.492Z,6.73
2018-01-03T01:38:30.090Z,6.72
2018-01-03T01:38:30.691Z,6.71
2018-01-03T01:38:31.292Z,6.72
2018-01-03T01:39:24.784Z,6.71
2018-01-03T01:39:25.348Z,6.72
2018-01-03T01:39:25.943Z,6.73
2018-01-03T01:39:26.545Z,6.69
2018-01-03T01:39:27.141Z,6.72
2018-01-03T01:39:27.743Z,6.72
2018-01-03T01:39:28.343Z,6.73
2018-01-03T01:39:28.943Z,6.72
2018-01-03T01:40:23.424Z,6.68
2018-01-03T01:40:24.022Z,6.72
2018-01-03T01:40:24.618Z,6.76
2018-01-03T01:40:25.221Z,6.72
2018-01-03T01:40:25.819Z,6.72
2018-01-03T01:40:26.419Z,6.72
2018-01-03T01:40:27.018Z,6.72
2018-01-03T01:40:27.617Z,6.81
2018-01-03T01:41:21.076Z,6.80
2018-01-03T01:41:21.672Z,6.71
2018-01-03T01:41:22.274Z,6.71
2018-01-03T01:41:22.873Z,6.72
2018-01-03T01:41:23.472Z,6.72
2018-01-03T01:41:24.071Z,6.73
2018-01-03T01:41:24.671Z,6.72
2018-01-03T01:41:25.273Z,6.72
2018-01-03T01:42:18.728Z,6.72
2018-01-03T01:42:19.328Z,6.83
2018-01-03T01:42:19.925Z,6.86
2018-01-03T01:42:20.524Z,6.86
2018-01-03T01:42:21.123Z,6.86
2018-01-03T01:42:21.723Z,6.73
2018-01-03T01:42:22.327Z,6.81
2018-01-03T01:42:22.923Z,6.86
2018-01-03T01:43:17.403Z,6.73
2018-01-03T01:43:17.999Z,6.84
2018-01-03T01:43:18.598Z,6.83
2018-01-03T01:43:19.201Z,6.89
2018-01-03T01:43:19.799Z,6.84
2018-01-03T01:43:20.402Z,6.77
2018-01-03T01:43:20.998Z,6.80
2018-01-03T01:43:21.604Z,6.86
2018-01-03T01:44:16.080Z,6.80
2018-01-03T01:44:16.676Z,6.83
2018-01-03T01:44:17.275Z,6.86
2018-01-03T01:44:17.875Z,6.91
2018-01-03T01:44:18.475Z,6.86
2018-01-03T01:44:19.075Z,6.91
2018-01-03T01:44:19.695Z,6.83
2018-01-03T01:44:20.275Z,6.83
2018-01-03T01:45:13.764Z,6.87
2018-01-03T01:45:14.329Z,6.86
2018-01-03T01:45:14.928Z,6.80
2018-01-03T01:45:15.528Z,6.90
2018-01-03T01:45:16.132Z,6.86
2018-01-03T01:45:16.728Z,6.86
2018-01-03T01:45:17.327Z,6.89
2018-01-03T01:45:17.928Z,6.84
2018-01-03T01:46:12.408Z,6.90
2018-01-03T01:46:13.007Z,6.91
2018-01-03T01:46:13.605Z,6.90
2018-01-03T01:46:14.205Z,6.90
2018-01-03T01:46:14.805Z,6.86
2018-01-03T01:46:15.405Z,6.90
2018-01-03T01:46:16.007Z,6.84
2018-01-03T01:46:16.604Z,6.86
2018-01-03T01:47:11.085Z,6.81
2018-01-03T01:47:11.679Z,6.89
2018-01-03T01:47:12.280Z,6.84
2018-01-03T01:47:12.881Z,6.89
2018-01-03T01:47:13.478Z,6.89
2018-01-03T01:47:14.076Z,6.89
2018-01-03T01:47:14.679Z,6.83
2018-01-03T01:47:15.276Z,6.83
2018-01-03T01:48:08.736Z,6.80
2018-01-03T01:48:09.332Z,6.84
2018-01-03T01:48:09.931Z,6.87
2018-01-03T01:48:10.532Z,6.98
2018-01-03T01:48:11.131Z,6.97
2018-01-03T01:48:11.735Z,6.95
2018-01-03T01:48:12.332Z,6.95
2018-01-03T01:48:12.932Z,6.84
2018-01-03T01:49:07.413Z,6.83
2018-01-03T01:49:08.009Z,6.97
2018-01-03T01:49:08.608Z,6.89
2018-01-03T01:49:09.207Z,6.95
2018-01-03T01:49:09.806Z,6.94
2018-01-03T01:49:10.405Z,6.99
2018-01-03T01:49:11.007Z,6.90
2018-01-03T01:49:11.605Z,6.90
2018-01-03T01:50:05.064Z,6.91
2018-01-03T01:50:05.663Z,6.95
2018-01-03T01:50:06.261Z,6.94
2018-01-03T01:50:06.859Z,6.91
2018-01-03T01:50:07.463Z,6.99
2018-01-03T01:50:08.060Z,6.97
2018-01-03T01:50:08.660Z,6.98
2018-01-03T01:50:09.259Z,6.91
2018-01-03T01:51:02.744Z,6.97
2018-01-03T01:51:03.314Z,7.01
2018-01-03T01:51:03.912Z,6.99
2018-01-03T01:51:04.512Z,6.98
2018-01-03T01:51:05.114Z,6.99
2018-01-03T01:51:05.712Z,6.98
2018-01-03T01:51:06.311Z,7.01
2018-01-03T01:51:06.912Z,6.99
2018-01-03T01:52:00.469Z,7.01
2018-01-03T01:52:01.067Z,6.98
2018-01-03T01:52:01.667Z,6.90
2018-01-03T01:52:02.266Z,6.97
2018-01-03T01:52:02.866Z,6.94
2018-01-03T01:52:03.466Z,6.98
2018-01-03T01:52:04.064Z,6.95
2018-01-03T01:52:04.665Z,6.94
2018-01-03T01:52:58.120Z,6.99
2018-01-03T01:52:58.718Z,6.99
2018-01-03T01:52:59.318Z,7.08
2018-01-03T01:52:59.922Z,7.01
2018-01-03T01:53:00.517Z,7.04
2018-01-03T01:53:01.117Z,6.98
2018-01-03T01:53:01.717Z,7.05
2018-01-03T01:53:02.316Z,7.05
2018-01-03T01:53:56.797Z,7.01
2018-01-03T01:53:57.393Z,6.99
2018-01-03T01:53:57.992Z,7.05
2018-01-03T01:53:58.593Z,6.99
2018-01-03T01:53:59.218Z,7.04
2018-01-03T01:53:59.794Z,7.05
2018-01-03T01:54:00.392Z,7.02
2018-01-03T01:54:00.993Z,6.98
2018-01-03T01:54:55.474Z,7.04
2018-01-03T01:54:56.066Z,7.04
2018-01-03T01:54:56.667Z,7.02
2018-01-03T01:54:57.276Z,7.02
2018-01-03T01:54:57.871Z,7.01
2018-01-03T01:54:58.466Z,6.98
2018-01-03T01:54:59.068Z,7.04
2018-01-03T01:54:59.665Z,7.04
2018-01-03T01:55:54.182Z,7.04
2018-01-03T01:55:54.744Z,7.05
2018-01-03T01:55:55.343Z,7.17
2018-01-03T01:55:55.943Z,7.04
2018-01-03T01:55:56.543Z,6.98
2018-01-03T01:55:57.148Z,7.01
2018-01-03T01:55:57.742Z,7.05
2018-01-03T01:55:58.343Z,6.97
2018-01-03T01:56:51.805Z,7.13
2018-01-03T01:56:52.398Z,7.09
2018-01-03T01:56:52.995Z,7.05
2018-01-03T01:56:53.596Z,7.07
2018-01-03T01:56:54.195Z,7.08
2018-01-03T01:56:54.795Z,7.16
2018-01-03T01:56:55.396Z,7.16
2018-01-03T01:56:55.996Z,7.12
2018-01-03T01:57:50.480Z,7.16
2018-01-03T01:57:51.071Z,7.15
2018-01-03T01:57:51.671Z,7.15
2018-01-03T01:57:52.271Z,7.13
2018-01-03T01:57:52.871Z,7.13
2018-01-03T01:57:53.472Z,7.17
2018-01-03T01:57:54.071Z,7.12
2018-01-03T01:57:54.671Z,7.07
2018-01-03T01:58:48.128Z,7.16
2018-01-03T01:58:48.725Z,7.15
2018-01-03T01:58:49.322Z,7.13
2018-01-03T01:58:49.923Z,7.13
2018-01-03T01:58:50.523Z,7.15
2018-01-03T01:58:51.124Z,7.16
2018-01-03T01:58:51.723Z,7.16
2018-01-03T01:58:52.344Z,7.13
2018-01-03T01:59:46.807Z,7.19
2018-01-03T01:59:47.399Z,7.17
2018-01-03T01:59:48.003Z,7.20
2018-01-03T01:59:48.598Z,7.08
2018-01-03T01:59:49.197Z,7.08
2018-01-03T01:59:49.799Z,7.12
2018-01-03T01:59:50.398Z,7.09
2018-01-03T01:59:50.997Z,7.09
2018-01-03T02:00:45.479Z,7.17
2018-01-03T02:00:46.074Z,7.07
2018-01-03T02:00:46.673Z,7.13
2018-01-03T02:00:47.276Z,7.17
2018-01-03T02:00:47.873Z,7.12
2018-01-03T02:00:48.474Z,7.19
2018-01-03T02:00:49.073Z,7.17
2018-01-03T02:00:49.673Z,7.22
2018-01-03T02:01:43.265Z,7.23
2018-01-03T02:01:43.829Z,7.22
2018-01-03T02:01:44.429Z,7.26
2018-01-03T02:01:45.029Z,7.23
2018-01-03T02:01:45.628Z,7.23
2018-01-03T02:01:46.227Z,7.17
2018-01-03T02:01:46.828Z,7.24
2018-01-03T02:01:47.427Z,7.20
2018-01-03T02:02:40.886Z,7.26
2018-01-03T02:02:41.481Z,7.22
2018-01-03T02:02:42.083Z,7.22
2018-01-03T02:02:42.680Z,7.22
2018-01-03T02:02:43.280Z,7.17
2018-01-03T02:02:43.882Z,7.17
2018-01-03T02:02:44.481Z,7.24
2018-01-03T02:02:45.080Z,7.22
2018-01-03T02:03:38.538Z,7.24
2018-01-03T02:03:39.134Z,7.31
2018-01-03T02:03:39.732Z,7.24
2018-01-03T02:03:40.332Z,7.27
2018-01-03T02:03:40.931Z,7.23
2018-01-03T02:03:41.532Z,7.27
2018-01-03T02:03:42.132Z,7.23
2018-01-03T02:03:42.732Z,7.24
2018-01-03T02:04:36.188Z,7.26
2018-01-03T02:04:36.784Z,7.34
2018-01-03T02:04:37.389Z,7.34
2018-01-03T02:04:37.984Z,7.34
2018-01-03T02:04:38.583Z,7.26
2018-01-03T02:04:39.184Z,7.24
2018-01-03T02:04:39.783Z,7.32
2018-01-03T02:04:40.384Z,7.24
2018-01-03T02:05:34.863Z,7.23
2018-01-03T02:05:35.474Z,7.23
2018-01-03T02:05:36.060Z,7.32
2018-01-03T02:05:36.659Z,7.26
2018-01-03T02:05:37.261Z,7.32
2018-01-03T02:05:37.859Z,7.35
2018-01-03T02:05:38.460Z,7.31
2018-01-03T02:05:39.057Z,7.34
2018-01-03T02:06:32.516Z,7.24
2018-01-03T02:06:33.112Z,7.35
2018-01-03T02:06:33.712Z,7.32
2018-01-03T02:06:34.311Z,7.37
2018-01-03T02:06:34.911Z,7.38
2018-01-03T02:06:35.512Z,7.31
2018-01-03T02:06:36.110Z,7.34
2018-01-03T02:06:36.710Z,7.35
2018-01-03T02:07:30.225Z,7.31
2018-01-03T02:07:30.766Z,7.32
2018-01-03T02:07:31.364Z,7.32
2018-01-03T02:07:31.964Z,7.34
2018-01-03T02:07:32.564Z,7.34
2018-01-03T02:07:33.163Z,7.32
2018-01-03T02:07:33.763Z,7.35
2018-01-03T02:07:34.367Z,7.38
2018-01-03T02:08:27.818Z,7.37
2018-01-03T02:08:28.415Z,7.31
2018-01-03T02:08:29.015Z,7.29
2018-01-03T02:08:29.615Z,7.35
2018-01-03T02:08:30.215Z,7.34
2018-01-03T02:08:30.824Z,7.34
2018-01-03T02:08:31.414Z,7.34
2018-01-03T02:08:32.015Z,7.34
2018-01-03T02:09:25.469Z,7.34
2018-01-03T02:09:26.067Z,7.35
2018-01-03T02:09:26.681Z,7.29
2018-01-03T02:09:27.267Z,7.35
2018-01-03T02:09:27.868Z,7.31
2018-01-03T02:09:28.467Z,7.35
2018-01-03T02:09:29.066Z,7.35
2018-01-03T02:09:29.670Z,7.35
2018-01-03T02:10:23.124Z,7.35
2018-01-03T02:10:23.719Z,7.32
2018-01-03T02:10:24.319Z,7.24
2018-01-03T02:10:24.918Z,7.42
2018-01-03T02:10:25.524Z,7.37
2018-01-03T02:10:26.120Z,7.32
2018-01-03T02:10:26.718Z,7.32
2018-01-03T02:10:27.335Z,7.34
2018-01-03T02:11:21.798Z,7.35
2018-01-03T02:11:22.394Z,7.44
2018-01-03T02:11:23.000Z,7.47
2018-01-03T02:11:23.592Z,7.38
2018-01-03T02:11:24.192Z,7.41
2018-01-03T02:11:24.791Z,7.40
2018-01-03T02:11:25.392Z,7.47
2018-01-03T02:11:25.994Z,7.41
2018-01-03T02:12:19.450Z,7.38
2018-01-03T02:12:20.046Z,7.49
2018-01-03T02:12:20.659Z,7.44
2018-01-03T02:12:21.245Z,7.44
2018-01-03T02:12:21.851Z,7.44
2018-01-03T02:12:22.445Z,7.41
2018-01-03T02:12:23.046Z,7.44
2018-01-03T02:12:23.645Z,7.40
2018-01-03T02:13:17.128Z,7.37
2018-01-03T02:13:17.698Z,7.42
2018-01-03T02:13:18.322Z,7.44
2018-01-03T02:13:18.897Z,7.47
2018-01-03T02:13:19.500Z,7.41
2018-01-03T02:13:20.099Z,7.42
2018-01-03T02:13:20.696Z,7.49
2018-01-03T02:13:21.295Z,7.44
2018-01-03T02:14:14.754Z,7.42
2018-01-03T02:14:15.351Z,7.40
2018-01-03T02:14:15.948Z,7.41
2018-01-03T02:14:16.549Z,7.47
2018-01-03T02:14:17.151Z,7.44
2018-01-03T02:14:17.749Z,7.45
2018-01-03T02:14:18.349Z,7.38
2018-01-03T02:14:18.949Z,7.49
2018-01-03T02:15:12.403Z,7.38
2018-01-03T02:15:13.001Z,7.53
2018-01-03T02:15:13.599Z,7.42
2018-01-03T02:15:14.201Z,7.53
2018-01-03T02:15:14.802Z,7.45
2018-01-03T02:15:15.399Z,7.40
2018-01-03T02:15:15.999Z,7.41
2018-01-03T02:15:16.601Z,7.56
2018-01-03T02:16:10.644Z,7.41
2018-01-03T02:16:11.164Z,7.42
2018-01-03T02:16:11.764Z,7.41
2018-01-03T02:16:12.364Z,7.47
2018-01-03T02:16:12.963Z,7.55
2018-01-03T02:16:13.564Z,7.38
2018-01-03T02:16:14.163Z,7.55
2018-01-03T02:17:07.708Z,7.41
2018-01-03T02:17:08.308Z,7.53
2018-01-03T02:17:08.904Z,7.55
2018-01-03T02:17:09.504Z,7.41
2018-01-03T02:17:10.103Z,7.50
2018-01-03T02:17:10.705Z,7.58
2018-01-03T02:17:11.307Z,7.49
2018-01-03T02:17:11.904Z,7.50
2018-01-03T02:18:32.954Z,7.52
2018-01-03T02:18:33.501Z,7.47
2018-01-03T02:18:34.104Z,7.45
2018-01-03T02:18:34.702Z,7.56
2018-01-03T02:18:35.301Z,7.56
2018-01-03T02:18:35.903Z,7.58
2018-01-03T02:18:36.501Z,7.50
2018-01-03T02:18:37.101Z,7.49
2018-01-03T02:18:37.701Z,7.55
2018-01-03T02:18:38.299Z,7.56
2018-01-03T02:18:38.900Z,7.55
2018-01-03T02:18:39.500Z,7.49
2018-01-03T02:19:33.526Z,7.56
2018-01-03T02:19:34.122Z,7.55
2018-01-03T02:19:34.721Z,7.56
2018-01-03T02:19:35.324Z,7.49
2018-01-03T02:19:35.922Z,7.53
2018-01-03T02:19:36.523Z,7.55
2018-01-03T02:19:37.121Z,7.49
2018-01-03T02:20:30.667Z,7.56
2018-01-03T02:20:31.264Z,7.49
2018-01-03T02:20:31.865Z,7.55
2018-01-03T02:20:32.463Z,7.56
2018-01-03T02:20:33.064Z,7.50
2018-01-03T02:20:33.663Z,7.53
2018-01-03T02:20:34.263Z,7.55
2018-01-03T02:20:34.865Z,7.53
2018-01-03T02:21:28.318Z,7.52
2018-01-03T02:21:28.916Z,7.47
2018-01-03T02:21:29.516Z,7.50
2018-01-03T02:21:30.115Z,7.47
2018-01-03T02:21:30.715Z,7.49
2018-01-03T02:21:31.315Z,7.47
2018-01-03T02:21:31.914Z,7.47
2018-01-03T02:21:32.516Z,7.58
2018-01-03T02:22:26.059Z,7.50
2018-01-03T02:22:26.566Z,7.50
2018-01-03T02:22:27.166Z,7.52
2018-01-03T02:22:27.768Z,7.56
2018-01-03T02:22:28.366Z,7.50
2018-01-03T02:22:28.966Z,7.56
2018-01-03T02:22:29.565Z,7.50
2018-01-03T02:22:30.166Z,7.56
2018-01-03T02:23:23.621Z,7.50
2018-01-03T02:23:24.217Z,7.56
2018-01-03T02:23:24.817Z,7.55
2018-01-03T02:23:25.419Z,7.50
2018-01-03T02:23:26.017Z,7.53
2018-01-03T02:23:26.616Z,7.55
2018-01-03T02:23:27.216Z,7.50
2018-01-03T02:23:27.817Z,7.63
2018-01-03T02:24:21.303Z,7.50
2018-01-03T02:24:21.868Z,7.62
2018-01-03T02:24:22.469Z,7.47
2018-01-03T02:24:23.069Z,7.60
2018-01-03T02:24:23.668Z,7.59
2018-01-03T02:24:24.270Z,7.66
2018-01-03T02:24:24.868Z,7.50
2018-01-03T02:24:25.470Z,7.53
2018-01-03T02:25:18.924Z,7.58
2018-01-03T02:25:19.521Z,7.67
2018-01-03T02:25:20.126Z,7.60
2018-01-03T02:25:20.720Z,7.63
2018-01-03T02:25:21.321Z,7.63
2018-01-03T02:25:21.920Z,7.63
2018-01-03T02:25:22.521Z,7.62
2018-01-03T02:25:23.121Z,7.60
2018-01-03T02:26:17.087Z,7.60
2018-01-03T02:26:17.684Z,7.63
2018-01-03T02:26:18.287Z,7.66
2018-01-03T02:26:18.885Z,7.59
2018-01-03T02:26:19.483Z,7.63
2018-01-03T02:26:20.083Z,7.60
2018-01-03T02:26:20.683Z,7.69
2018-01-03T02:27:14.227Z,7.60
2018-01-03T02:27:14.823Z,7.60
2018-01-03T02:27:15.423Z,7.67
2018-01-03T02:27:16.023Z,7.67
2018-01-03T02:27:16.623Z,7.71
2018-01-03T02:27:17.224Z,7.62
2018-01-03T02:27:17.826Z,7.66
2018-01-03T02:27:18.423Z,7.59
2018-01-03T02:28:11.902Z,7.59
2018-01-03T02:28:12.475Z,7.60
2018-01-03T02:28:13.074Z,7.66
2018-01-03T02:28:13.674Z,7.62
2018-01-03T02:28:14.274Z,7.62
2018-01-03T02:28:14.874Z,7.60
2018-01-03T02:28:15.474Z,7.67
2018-01-03T02:28:16.074Z,7.56
2018-01-03T02:29:09.532Z,7.58
2018-01-03T02:29:10.128Z,7.66
2018-01-03T02:29:10.727Z,7.69
2018-01-03T02:29:11.332Z,7.63
2018-01-03T02:29:11.927Z,7.58
2018-01-03T02:29:12.527Z,7.60
2018-01-03T02:29:13.127Z,7.63
2018-01-03T02:29:13.726Z,7.58
2018-01-03T02:30:07.218Z,7.59
2018-01-03T02:30:07.780Z,7.58
2018-01-03T02:30:08.379Z,7.62
2018-01-03T02:30:08.983Z,7.60
2018-01-03T02:30:09.579Z,7.63
2018-01-03T02:30:10.177Z,7.62
2018-01-03T02:30:10.777Z,7.59
2018-01-03T02:30:11.378Z,7.67
2018-01-03T02:31:04.834Z,7.66
2018-01-03T02:31:05.431Z,7.69
2018-01-03T02:31:06.030Z,7.60
2018-01-03T02:31:06.632Z,7.62
2018-01-03T02:31:07.237Z,7.63
2018-01-03T02:31:07.839Z,7.66
2018-01-03T02:31:08.431Z,7.66
2018-01-03T02:31:09.031Z,7.66
2018-01-03T02:32:02.487Z,7.62
2018-01-03T02:32:03.089Z,7.69
2018-01-03T02:32:03.684Z,7.60
2018-01-03T02:32:04.284Z,7.77
2018-01-03T02:32:04.882Z,7.69
2018-01-03T02:32:05.483Z,7.74
2018-01-03T02:32:06.083Z,7.60
2018-01-03T02:32:06.683Z,7.62
2018-01-03T02:33:00.142Z,7.66
2018-01-03T02:33:00.737Z,7.62
2018-01-03T02:33:01.335Z,7.69
2018-01-03T02:33:01.934Z,7.71
2018-01-03T02:33:02.533Z,7.78
2018-01-03T02:33:03.133Z,7.78
2018-01-03T02:33:03.734Z,7.67
2018-01-03T02:33:04.344Z,7.71
2018-01-03T02:52:05.521Z,7.67
2018-01-03T02:52:06.087Z,7.66
2018-01-03T02:52:06.683Z,7.66
2018-01-03T02:52:07.282Z,7.60
2018-01-03T02:52:07.882Z,7.66
2018-01-03T02:52:08.481Z,7.66
2018-01-03T02:52:09.081Z,7.63
2018-01-03T02:52:09.681Z,7.72
2018-01-03T02:53:03.144Z,7.67
2018-01-03T02:53:03.737Z,7.74
2018-01-03T02:53:04.363Z,7.62
2018-01-03T02:53:04.934Z,7.58
2018-01-03T02:53:05.536Z,7.69
2018-01-03T02:53:06.140Z,7.69
2018-01-03T02:53:06.733Z,7.63
2018-01-03T02:53:07.335Z,7.66
2018-01-03T02:54:01.302Z,7.66
2018-01-03T02:54:01.907Z,7.66
2018-01-03T02:54:02.499Z,7.67
2018-01-03T02:54:03.100Z,7.66
2018-01-03T02:54:03.697Z,7.66
2018-01-03T02:54:04.298Z,7.62
2018-01-03T02:54:04.899Z,7.62
2018-01-03T02:54:58.342Z,7.60
2018-01-03T02:54:58.936Z,7.62
2018-01-03T02:54:59.537Z,7.62
2018-01-03T02:55:00.136Z,7.62
2018-01-03T02:55:00.743Z,7.63
2018-01-03T02:55:01.339Z,7.67
2018-01-03T02:55:01.937Z,7.63
2018-01-03T02:55:02.537Z,7.60
2018-01-03T02:55:55.990Z,7.56
2018-01-03T02:55:56.589Z,7.59
2018-01-03T02:55:57.188Z,7.62
2018-01-03T02:55:57.789Z,7.67
2018-01-03T02:55:58.387Z,7.62
2018-01-03T02:55:58.988Z,7.69
2018-01-03T02:55:59.587Z,7.62
2018-01-03T02:56:00.187Z,7.66
2018-01-03T02:56:53.645Z,7.60
2018-01-03T02:56:54.240Z,7.63
2018-01-03T02:56:54.840Z,7.71
2018-01-03T02:56:55.439Z,7.63
2018-01-03T02:56:56.042Z,7.69
2018-01-03T02:56:56.639Z,7.63
2018-01-03T02:56:57.241Z,7.60
2018-01-03T02:56:57.848Z,7.67
2018-01-03T02:57:51.320Z,7.59
2018-01-03T02:57:51.892Z,7.60
2018-01-03T02:57:52.492Z,7.69
2018-01-03T02:57:53.108Z,7.66
2018-01-03T02:57:53.690Z,7.69
2018-01-03T02:57:54.298Z,7.60
2018-01-03T02:57:54.895Z,7.63
2018-01-03T02:57:55.492Z,7.63
2018-01-03T02:58:48.947Z,7.62
2018-01-03T02:58:49.544Z,7.66
2018-01-03T02:58:50.143Z,7.66
2018-01-03T02:58:50.743Z,7.62
2018-01-03T02:58:51.343Z,7.71
2018-01-03T02:58:51.946Z,7.66
2018-01-03T02:58:52.543Z,7.66
2018-01-03T02:58:53.143Z,7.74
2018-01-03T02:59:46.629Z,7.74
2018-01-03T02:59:47.195Z,7.69
2018-01-03T02:59:47.795Z,7.75
2018-01-03T02:59:48.406Z,7.66
2018-01-03T02:59:48.998Z,7.63
2018-01-03T02:59:49.596Z,7.74
2018-01-03T02:59:50.195Z,7.69
2018-01-03T02:59:50.796Z,7.78
2018-01-03T03:00:44.252Z,7.62
2018-01-03T03:00:44.848Z,7.67
2018-01-03T03:00:45.448Z,7.75
2018-01-03T03:00:46.050Z,7.75
2018-01-03T03:00:46.651Z,7.69
2018-01-03T03:00:47.248Z,7.71
2018-01-03T03:00:47.847Z,7.74
2018-01-03T03:00:48.451Z,7.75
2018-01-03T03:01:42.926Z,7.72
2018-01-03T03:01:43.521Z,7.77
2018-01-03T03:01:44.123Z,7.72
2018-01-03T03:01:44.724Z,7.67
2018-01-03T03:01:45.329Z,7.72
2018-01-03T03:01:45.922Z,7.72
2018-01-03T03:01:46.522Z,7.72
2018-01-03T03:01:47.121Z,7.71
2018-01-03T03:02:40.612Z,7.71
2018-01-03T03:02:41.178Z,7.74
2018-01-03T03:02:41.777Z,7.72
2018-01-03T03:02:42.381Z,7.74
2018-01-03T03:02:42.978Z,7.72
2018-01-03T03:02:43.575Z,7.72
2018-01-03T03:02:44.174Z,7.74
2018-01-03T03:02:44.774Z,7.74
2018-01-03T03:03:38.232Z,7.74
2018-01-03T03:03:38.828Z,7.74
2018-01-03T03:03:39.433Z,7.74
2018-01-03T03:03:40.028Z,7.71
2018-01-03T03:03:40.629Z,7.72
2018-01-03T03:03:41.227Z,7.72
2018-01-03T03:03:41.826Z,7.71
2018-01-03T03:03:42.430Z,7.71
2018-01-03T03:04:35.974Z,7.74
2018-01-03T03:04:36.479Z,7.72
2018-01-03T03:04:37.079Z,7.75
2018-01-03T03:04:37.678Z,7.75
2018-01-03T03:04:38.281Z,7.71
2018-01-03T03:04:38.879Z,7.75
2018-01-03T03:04:39.479Z,7.77
2018-01-03T03:04:40.078Z,7.74
2018-01-03T03:05:34.558Z,7.72
2018-01-03T03:05:35.154Z,7.71
2018-01-03T03:05:35.753Z,7.69
2018-01-03T03:05:36.372Z,7.71
2018-01-03T03:05:36.956Z,7.71
2018-01-03T03:05:37.554Z,7.69
2018-01-03T03:05:38.153Z,7.71
2018-01-03T03:05:38.752Z,7.74
2018-01-03T03:06:32.215Z,7.77
2018-01-03T03:06:32.807Z,7.78
2018-01-03T03:06:33.409Z,7.71
2018-01-03T03:06:34.007Z,7.71
2018-01-03T03:06:34.607Z,7.79
2018-01-03T03:06:35.207Z,7.71
2018-01-03T03:06:35.806Z,7.72
2018-01-03T03:06:36.405Z,7.77
2018-01-03T03:07:30.884Z,7.72
2018-01-03T03:07:31.481Z,7.75
2018-01-03T03:07:32.084Z,7.69
2018-01-03T03:07:32.681Z,7.75
2018-01-03T03:07:33.281Z,7.66
2018-01-03T03:07:33.881Z,7.75
2018-01-03T03:07:34.487Z,7.79
2018-01-03T03:07:35.082Z,7.77
2018-01-03T03:08:29.885Z,7.71
2018-01-03T03:08:30.391Z,7.78
2018-01-03T03:08:30.990Z,7.75
2018-01-03T03:08:31.588Z,7.81
2018-01-03T03:08:32.194Z,7.72
2018-01-03T03:08:32.787Z,7.75
2018-01-03T03:08:33.386Z,7.82
2018-01-03T03:08:33.985Z,7.77
2018-01-03T03:09:27.541Z,7.79
2018-01-03T03:09:28.116Z,7.75
2018-01-03T03:09:28.719Z,7.81
2018-01-03T03:09:29.317Z,7.81
2018-01-03T03:09:29.919Z,7.82
2018-01-03T03:09:30.517Z,7.84
2018-01-03T03:09:31.119Z,7.84
2018-01-03T03:09:31.717Z,7.72
2018-01-03T03:10:25.174Z,7.78
2018-01-03T03:10:25.770Z,7.81
2018-01-03T03:10:26.370Z,7.81
2018-01-03T03:10:26.974Z,7.79
2018-01-03T03:10:27.580Z,7.78
2018-01-03T03:10:28.169Z,7.79
2018-01-03T03:10:28.769Z,7.81
2018-01-03T03:10:29.368Z,7.79
2018-01-03T03:11:22.829Z,7.81
2018-01-03T03:11:23.434Z,7.79
2018-01-03T03:11:24.021Z,7.81
2018-01-03T03:11:24.620Z,7.79
2018-01-03T03:11:25.220Z,7.84
2018-01-03T03:11:25.819Z,7.78
2018-01-03T03:11:26.419Z,7.82
2018-01-03T03:11:27.035Z,7.79
2018-01-03T03:12:20.479Z,7.81
2018-01-03T03:12:21.073Z,7.78
2018-01-03T03:12:21.672Z,7.78
2018-01-03T03:12:22.273Z,7.82
2018-01-03T03:12:22.872Z,7.77
2018-01-03T03:12:23.476Z,7.78
2018-01-03T03:12:24.071Z,7.77
2018-01-03T03:12:24.671Z,7.78
2018-01-03T03:13:18.131Z,7.82
2018-01-03T03:13:18.725Z,7.81
2018-01-03T03:13:19.324Z,7.78
2018-01-03T03:13:19.925Z,7.87
2018-01-03T03:13:20.535Z,7.84
2018-01-03T03:13:21.123Z,7.84
2018-01-03T03:13:21.724Z,7.84
2018-01-03T03:13:22.324Z,7.81
2018-01-03T03:14:15.810Z,7.79
2018-01-03T03:14:16.375Z,7.92
2018-01-03T03:14:16.975Z,7.87
2018-01-03T03:14:17.574Z,7.84
2018-01-03T03:14:18.174Z,7.81
2018-01-03T03:14:18.775Z,7.84
2018-01-03T03:14:19.375Z,7.89
2018-01-03T03:14:19.973Z,7.82
2018-01-03T03:15:13.432Z,7.87
2018-01-03T03:15:14.028Z,7.87
2018-01-03T03:15:14.627Z,7.90
2018-01-03T03:15:15.226Z,7.85
2018-01-03T03:15:15.831Z,7.81
2018-01-03T03:15:16.426Z,7.84
2018-01-03T03:15:17.029Z,7.85
2018-01-03T03:15:17.626Z,7.87
2018-01-03T03:16:11.083Z,7.85
2018-01-03T03:16:11.678Z,7.84
2018-01-03T03:16:12.278Z,7.90
2018-01-03T03:16:12.877Z,7.82
2018-01-03T03:16:13.480Z,7.85
2018-01-03T03:16:14.077Z,7.85
2018-01-03T03:16:14.678Z,7.84
2018-01-03T03:16:15.278Z,7.84
2018-01-03T03:17:08.739Z,7.87
2018-01-03T03:17:09.332Z,7.89
2018-01-03T03:17:09.929Z,7.89
2018-01-03T03:17:10.529Z,7.84
2018-01-03T03:17:11.129Z,7.85
2018-01-03T03:17:11.729Z,7.90
2018-01-03T03:17:12.335Z,7.85
2018-01-03T03:17:12.928Z,7.94
2018-01-03T03:18:06.389Z,7.89
2018-01-03T03:18:06.981Z,7.97
2018-01-03T03:18:07.581Z,7.87
2018-01-03T03:18:08.180Z,7.89
2018-01-03T03:18:08.782Z,7.89
2018-01-03T03:18:09.381Z,7.89
2018-01-03T03:18:09.981Z,7.89
2018-01-03T03:18:10.588Z,7.87
2018-01-03T03:19:04.039Z,7.89
2018-01-03T03:19:04.635Z,7.89
2018-01-03T03:19:05.233Z,7.93
2018-01-03T03:19:05.833Z,7.90
2018-01-03T03:19:06.434Z,7.89
2018-01-03T03:19:07.033Z,7.87
2018-01-03T03:19:07.648Z,7.92
2018-01-03T03:19:08.233Z,7.87
2018-01-03T03:20:01.715Z,7.92
2018-01-03T03:20:02.285Z,7.87
2018-01-03T03:20:02.885Z,7.84
2018-01-03T03:20:03.485Z,7.89
2018-01-03T03:20:04.084Z,7.87
2018-01-03T03:20:04.685Z,7.90
2018-01-03T03:20:05.284Z,7.87
2018-01-03T03:20:05.886Z,7.89
2018-01-03T03:20:59.340Z,7.93
2018-01-03T03:20:59.936Z,7.92
2018-01-03T03:21:00.536Z,7.92
2018-01-03T03:21:01.137Z,7.87
2018-01-03T03:21:01.737Z,7.87
2018-01-03T03:21:02.335Z,7.93
2018-01-03T03:21:02.936Z,7.85
2018-01-03T03:21:03.535Z,7.90
2018-01-03T03:21:56.990Z,7.87
2018-01-03T03:21:57.590Z,7.96
2018-01-03T03:21:58.188Z,7.89
2018-01-03T03:21:58.788Z,7.87
2018-01-03T03:21:59.388Z,7.92
2018-01-03T03:21:59.990Z,7.87
2018-01-03T03:22:00.587Z,7.99
2018-01-03T03:22:01.229Z,7.89
2018-01-03T03:22:54.644Z,7.93
2018-01-03T03:22:55.240Z,7.89
2018-01-03T03:22:55.841Z,7.87
2018-01-03T03:22:56.441Z,7.96
2018-01-03T03:22:57.042Z,7.92
2018-01-03T03:22:57.645Z,8.03
2018-01-03T03:22:58.244Z,7.93
2018-01-03T03:22:58.839Z,7.89
2018-01-03T03:23:52.301Z,7.87
2018-01-03T03:23:52.892Z,7.87
2018-01-03T03:23:53.492Z,8.03
2018-01-03T03:23:54.093Z,7.96
2018-01-03T03:23:54.692Z,7.96
2018-01-03T03:23:55.291Z,8.00
2018-01-03T03:23:55.892Z,7.96
2018-01-03T03:23:56.492Z,7.97
2018-01-03T03:24:49.973Z,7.85
2018-01-03T03:24:50.542Z,7.89
2018-01-03T03:24:51.144Z,7.96
2018-01-03T03:24:51.744Z,7.97
2018-01-03T03:24:52.343Z,7.96
2018-01-03T03:24:52.943Z,8.02
2018-01-03T03:24:53.542Z,7.90
2018-01-03T03:24:54.143Z,7.96
2018-01-03T03:25:47.599Z,7.99
2018-01-03T03:25:48.194Z,7.99
2018-01-03T03:25:48.795Z,8.04
2018-01-03T03:25:49.395Z,7.92
2018-01-03T03:25:49.995Z,7.93
2018-01-03T03:25:50.595Z,7.97
2018-01-03T03:25:51.195Z,7.97
2018-01-03T03:25:51.794Z,7.97
2018-01-03T03:26:45.251Z,7.87
2018-01-03T03:26:45.847Z,8.02
2018-01-03T03:26:46.446Z,8.00
2018-01-03T03:26:47.047Z,8.02
2018-01-03T03:26:47.646Z,7.99
2018-01-03T03:26:48.249Z,7.94
2018-01-03T03:26:48.846Z,8.00
2018-01-03T03:26:49.446Z,7.97
2018-01-03T03:27:42.903Z,7.97
2018-01-03T03:27:43.498Z,7.97
2018-01-03T03:27:44.097Z,7.99
2018-01-03T03:27:44.698Z,8.02
2018-01-03T03:27:45.297Z,8.02
2018-01-03T03:27:45.897Z,7.97
2018-01-03T03:27:46.497Z,7.99
2018-01-03T03:27:47.098Z,7.96
2018-01-03T03:28:40.556Z,8.02
2018-01-03T03:28:41.152Z,8.00
2018-01-03T03:28:41.751Z,8.03
2018-01-03T03:28:42.354Z,7.97
2018-01-03T03:28:42.952Z,8.03
2018-01-03T03:28:43.554Z,8.03
2018-01-03T03:28:44.152Z,8.02
2018-01-03T03:28:44.755Z,7.96
2018-01-03T03:29:38.237Z,7.94
2018-01-03T03:29:38.802Z,8.03
2018-01-03T03:29:39.403Z,7.97
2018-01-03T03:29:40.003Z,7.97
2018-01-03T03:29:40.604Z,7.97
2018-01-03T03:29:41.203Z,7.96
2018-01-03T03:29:41.805Z,7.97
2018-01-03T03:29:42.404Z,8.00
2018-01-03T03:30:35.857Z,7.94
2018-01-03T03:30:36.455Z,7.93
2018-01-03T03:30:37.054Z,7.96
2018-01-03T03:30:37.652Z,8.02
2018-01-03T03:30:38.255Z,7.97
2018-01-03T03:30:38.857Z,7.93
2018-01-03T03:30:39.461Z,8.00
2018-01-03T03:30:40.054Z,7.99
2018-01-03T03:31:46.206Z,8.02
2018-01-03T03:31:46.802Z,8.04
2018-01-03T03:31:47.412Z,8.04
2018-01-03T03:31:48.002Z,7.93
2018-01-03T03:31:48.602Z,7.96
2018-01-03T03:31:49.204Z,7.97
2018-01-03T03:31:49.801Z,8.08
2018-01-03T03:31:50.401Z,7.99
2018-01-03T03:32:43.858Z,7.93
2018-01-03T03:32:44.453Z,8.00
2018-01-03T03:32:45.054Z,8.11
2018-01-03T03:32:45.655Z,8.03
2018-01-03T03:32:46.254Z,8.04
2018-01-03T03:32:46.855Z,8.07
2018-01-03T03:32:47.454Z,7.97